createdAt,value
2022-11-20T00:01:55.914Z,99606.50
2022-11-20T00:04:26.157Z,99603.81
2022-11-20T00:06:56.418Z,99612.41
2022-11-20T00:09:26.795Z,99616.00
2022-11-20T00:11:57.044Z,99612.41
2022-11-20T00:14:30.304Z,99609.72
2022-11-20T00:17:00.441Z,99595.78
2022-11-20T00:19:31.077Z,99596.84
2022-11-20T00:22:01.247Z,99590.72
2022-11-20T00:24:35.134Z,99587.00
2022-11-20T00:27:07.043Z,99585.16
2022-11-20T00:29:39.781Z,99586.84
2022-11-20T00:32:10.009Z,99590.38
2022-11-20T00:34:42.563Z,99604.91
2022-11-20T00:37:12.716Z,99613.41
2022-11-20T00:39:42.903Z,99611.72
2022-11-20T00:42:13.064Z,99608.97
2022-11-20T00:44:45.938Z,99606.69
2022-11-20T00:47:16.298Z,99623.91
2022-11-20T00:49:46.894Z,99630.63
2022-11-20T00:52:17.037Z,99642.38
2022-11-20T00:54:47.178Z,99655.41
2022-11-20T00:57:17.640Z,99640.53
2022-11-20T00:59:50.385Z,99635.50
2022-11-20T01:02:20.690Z,99627.75
2022-11-20T01:04:50.911Z,99612.72
2022-11-20T01:07:21.265Z,99607.59
2022-11-20T01:09:52.113Z,99611.34
2022-11-20T01:12:22.196Z,99617.16
2022-11-20T01:14:55.036Z,99629.50
2022-11-20T01:17:25.230Z,99630.72
2022-11-20T01:19:55.700Z,99631.50
2022-11-20T01:22:25.835Z,99634.88
2022-11-20T01:24:55.955Z,99634.44
2022-11-20T01:27:26.129Z,99626.44
2022-11-20T01:30:01.237Z,99628.75
2022-11-20T01:32:31.816Z,99621.09
2022-11-20T01:35:01.969Z,99611.19
2022-11-20T01:37:32.231Z,99609.50
2022-11-20T01:40:02.929Z,99592.44
2022-11-20T01:42:45.537Z,99579.84
2022-11-20T01:45:59.088Z,99579.78
2022-11-20T01:48:33.676Z,99562.47
2022-11-20T01:51:05.204Z,99559.75
2022-11-20T01:53:38.604Z,99565.56
2022-11-20T01:56:13.739Z,99562.78
2022-11-20T01:58:48.784Z,99558.19
2022-11-20T02:01:22.583Z,99562.88
2022-11-20T02:03:54.307Z,99569.00
2022-11-20T02:06:29.874Z,99561.13
2022-11-20T02:09:00.323Z,99554.22
2022-11-20T02:11:30.624Z,99568.75
2022-11-20T02:13:59.156Z,99562.47
2022-11-20T02:16:34.581Z,99579.50
2022-11-20T02:19:10.226Z,99580.03
2022-11-20T02:21:47.120Z,99581.09
2022-11-20T02:24:22.303Z,99586.91
2022-11-20T02:26:57.194Z,99573.91
2022-11-20T02:29:30.775Z,99572.13
2022-11-20T02:32:03.280Z,99569.53
2022-11-20T02:34:33.756Z,99564.81
2022-11-20T02:37:04.279Z,99557.84
2022-11-20T02:39:37.133Z,99564.25
2022-11-20T02:42:07.599Z,99562.13
2022-11-20T02:44:37.811Z,99558.44
2022-11-20T02:47:07.930Z,99550.34
2022-11-20T02:49:38.467Z,99551.13
2022-11-20T02:52:08.874Z,99548.63
2022-11-20T02:54:41.667Z,99545.94
2022-11-20T02:57:11.744Z,99551.31
2022-11-20T02:59:42.060Z,99549.09
2022-11-20T03:02:12.381Z,99538.47
2022-11-20T03:04:42.565Z,99539.00
2022-11-20T03:07:13.542Z,99530.78
2022-11-20T03:09:46.296Z,99532.03
2022-11-20T03:12:16.721Z,99519.94
2022-11-20T03:14:52.641Z,99524.66
2022-11-20T03:17:23.592Z,99528.34
2022-11-20T03:19:53.775Z,99532.09
2022-11-20T03:22:24.125Z,99531.03
2022-11-20T03:24:56.913Z,99528.56
2022-11-20T03:27:27.124Z,99531.09
2022-11-20T03:29:57.479Z,99521.38
2022-11-20T03:32:27.588Z,99527.13
2022-11-20T03:34:57.868Z,99528.50
2022-11-20T03:37:28.199Z,99524.97
2022-11-20T03:40:01.284Z,99522.59
2022-11-20T03:42:43.964Z,99523.75
2022-11-20T03:45:15.223Z,99523.53
2022-11-20T03:47:45.907Z,99514.97
2022-11-20T03:50:17.513Z,99520.91
2022-11-20T03:52:47.815Z,99513.63
2022-11-20T03:55:20.725Z,99509.13
2022-11-20T03:57:51.201Z,99504.84
2022-11-20T04:00:21.661Z,99507.16
2022-11-20T04:02:51.828Z,99500.03
2022-11-20T04:05:21.874Z,99496.44
2022-11-20T04:07:52.246Z,99494.44
2022-11-20T04:10:25.240Z,99492.34
2022-11-20T04:12:55.314Z,99499.16
2022-11-20T04:15:25.608Z,99492.84
2022-11-20T04:17:55.760Z,99507.44
2022-11-20T04:20:26.019Z,99507.38
2022-11-20T04:22:58.120Z,99499.56
2022-11-20T04:25:30.807Z,99503.50
2022-11-20T04:28:01.435Z,99497.31
2022-11-20T04:30:31.868Z,99490.56
2022-11-20T04:33:05.050Z,99494.63
2022-11-20T04:35:38.031Z,99484.78
2022-11-20T04:38:08.366Z,99491.41
2022-11-20T04:40:41.509Z,99477.13
2022-11-20T04:43:11.732Z,99465.78
2022-11-20T04:45:41.787Z,99474.34
2022-11-20T04:48:12.031Z,99476.78
2022-11-20T04:50:44.132Z,99463.00
2022-11-20T04:53:14.448Z,99457.22
2022-11-20T04:55:47.370Z,99473.41
2022-11-20T04:58:17.875Z,99469.72
2022-11-20T05:00:48.104Z,99469.25
2022-11-20T05:03:18.213Z,99461.34
2022-11-20T05:05:48.308Z,99461.28
2022-11-20T05:08:18.517Z,99465.44
2022-11-20T05:10:51.351Z,99472.41
2022-11-20T05:13:21.521Z,99462.00
2022-11-20T05:15:51.699Z,99449.56
2022-11-20T05:18:21.975Z,99436.72
2022-11-20T05:20:59.145Z,99429.72
2022-11-20T05:23:29.869Z,99422.59
2022-11-20T05:26:02.967Z,99425.88
2022-11-20T05:28:34.577Z,99420.41
2022-11-20T05:31:11.966Z,99409.06
2022-11-20T05:33:44.585Z,99419.13
2022-11-20T05:36:15.764Z,99409.63
2022-11-20T05:38:50.652Z,99422.75
2022-11-20T05:41:24.585Z,99425.34
2022-11-20T05:43:55.100Z,99430.06
2022-11-20T05:46:29.318Z,99427.97
2022-11-20T05:49:00.965Z,99426.34
2022-11-20T05:51:32.180Z,99431.00
2022-11-20T05:54:02.741Z,99419.56
2022-11-20T05:56:35.454Z,99422.84
2022-11-20T05:59:05.851Z,99406.69
2022-11-20T06:01:37.035Z,99422.28
2022-11-20T06:04:07.797Z,99418.56
2022-11-20T06:06:38.014Z,99424.44
2022-11-20T06:09:08.449Z,99424.94
2022-11-20T06:11:41.316Z,99417.03
2022-11-20T06:14:11.772Z,99411.16
2022-11-20T06:16:41.915Z,99412.00
2022-11-20T06:19:12.131Z,99413.84
2022-11-20T06:21:42.384Z,99424.38
2022-11-20T06:24:13.371Z,99432.84
2022-11-20T06:26:51.955Z,99429.31
2022-11-20T06:29:22.325Z,99442.19
2022-11-20T06:31:52.720Z,99434.28
2022-11-20T06:34:23.203Z,99437.63
2022-11-20T06:36:53.604Z,99435.38
2022-11-20T06:39:23.950Z,99429.41
2022-11-20T06:41:59.505Z,99439.25
2022-11-20T06:44:29.755Z,99441.19
2022-11-20T06:46:59.972Z,99444.25
2022-11-20T06:49:30.084Z,99445.66
2022-11-20T06:52:00.423Z,99452.53
2022-11-20T06:54:30.533Z,99451.53
2022-11-20T06:57:03.408Z,99463.34
2022-11-20T06:59:33.659Z,99446.56
2022-11-20T07:02:04.815Z,99442.78
2022-11-20T07:04:34.912Z,99442.53
2022-11-20T07:07:05.136Z,99447.31
2022-11-20T07:09:38.947Z,99451.59
2022-11-20T07:12:12.337Z,99450.50
2022-11-20T07:14:42.685Z,99465.47
2022-11-20T07:17:12.672Z,99468.00
2022-11-20T07:19:44.121Z,99459.69
2022-11-20T07:22:14.443Z,99448.69
2022-11-20T07:24:46.226Z,99445.56
2022-11-20T07:27:19.129Z,99427.22
2022-11-20T07:29:49.350Z,99416.97
2022-11-20T07:32:19.539Z,99426.19
2022-11-20T07:34:49.688Z,99423.94
2022-11-20T07:37:20.085Z,99394.78
2022-11-20T07:39:50.180Z,99419.53
2022-11-20T07:42:22.998Z,99429.88
2022-11-20T07:44:53.190Z,99435.56
2022-11-20T07:47:23.401Z,99431.34
2022-11-20T07:49:53.834Z,99447.84
2022-11-20T07:52:24.204Z,99451.88
2022-11-20T07:54:54.529Z,99430.44
2022-11-20T07:57:28.611Z,99432.75
2022-11-20T07:59:58.989Z,99443.53
2022-11-20T08:02:29.208Z,99447.72
2022-11-20T08:04:59.617Z,99453.69
2022-11-20T08:07:29.861Z,99458.38
2022-11-20T08:10:00.131Z,99478.19
2022-11-20T08:12:45.259Z,99499.59
2022-11-20T08:15:15.593Z,99496.00
2022-11-20T08:18:01.958Z,99480.13
2022-11-20T08:20:32.575Z,99487.88
2022-11-20T08:23:03.848Z,99486.94
2022-11-20T08:25:34.822Z,99483.94
2022-11-20T08:28:19.899Z,99485.31
2022-11-20T08:30:51.504Z,99483.09
2022-11-20T08:33:22.303Z,99481.41
2022-11-20T08:35:52.536Z,99484.03
2022-11-20T08:38:22.851Z,99490.63
2022-11-20T08:41:13.815Z,99505.78
2022-11-20T08:43:46.569Z,99496.91
2022-11-20T08:46:17.166Z,99486.88
2022-11-20T08:48:47.945Z,99488.25
2022-11-20T08:51:19.177Z,99484.91
2022-11-20T08:53:49.759Z,99485.13
2022-11-20T08:56:20.628Z,99477.38
2022-11-20T09:01:44.686Z,99493.09
2022-11-20T09:04:15.558Z,99496.56
2022-11-20T09:06:45.911Z,99516.03
2022-11-20T09:09:16.061Z,99510.47
2022-11-20T09:11:46.224Z,99502.72
2022-11-20T09:14:19.107Z,99496.19
2022-11-20T09:16:51.812Z,99501.78
2022-11-20T09:19:35.384Z,99488.19
2022-11-20T09:22:06.520Z,99486.47
2022-11-20T09:24:36.783Z,99490.75
2022-11-20T09:27:08.286Z,99489.84
2022-11-20T09:29:41.896Z,99502.34
2022-11-20T09:32:12.068Z,99485.59
2022-11-20T09:34:42.518Z,99493.03
2022-11-20T09:37:12.660Z,99509.06
2022-11-20T09:39:43.032Z,99486.78
2022-11-20T09:42:39.799Z,99492.41
2022-11-20T09:45:22.039Z,99486.66
2022-11-20T09:48:07.321Z,99480.00
2022-11-20T09:50:48.871Z,99458.19
2022-11-20T09:53:29.046Z,99442.19
2022-11-20T09:56:00.061Z,99450.25
2022-11-20T09:58:36.176Z,99455.16
2022-11-20T10:01:16.185Z,99438.34
2022-11-20T10:03:57.473Z,99428.47
2022-11-20T10:06:33.483Z,99443.84
2022-11-20T10:09:16.112Z,99431.94
2022-11-20T10:11:52.881Z,99420.94
2022-11-20T10:14:34.803Z,99411.63
2022-11-20T10:17:24.371Z,99410.81
2022-11-20T10:20:12.819Z,99428.47
2022-11-20T10:22:54.069Z,99429.66
2022-11-20T10:25:28.456Z,99430.72
2022-11-20T10:28:14.680Z,99441.03
2022-11-20T10:30:48.081Z,99428.41
2022-11-20T10:33:24.286Z,99427.59
2022-11-20T10:35:58.363Z,99420.41
2022-11-20T10:38:37.716Z,99417.59
2022-11-20T10:41:23.344Z,99416.50
2022-11-20T10:43:58.360Z,99413.44
2022-11-20T10:46:32.498Z,99408.41
2022-11-20T10:49:09.046Z,99412.09
2022-11-20T10:51:43.948Z,99416.28
2022-11-20T10:54:24.819Z,99420.09
2022-11-20T10:56:56.311Z,99419.16
2022-11-20T10:59:42.008Z,99417.25
2022-11-20T11:02:24.271Z,99422.47
2022-11-20T11:04:58.026Z,99424.38
2022-11-20T11:07:33.560Z,99421.28
2022-11-20T11:10:04.368Z,99432.63
2022-11-20T11:12:35.109Z,99438.13
2022-11-20T11:15:05.422Z,99445.41
2022-11-20T11:17:37.724Z,99444.22
2022-11-20T11:20:20.496Z,99425.94
2022-11-20T11:22:53.859Z,99426.53
2022-11-20T11:25:26.761Z,99423.78
2022-11-20T11:27:59.250Z,99415.06
2022-11-20T11:30:32.193Z,99418.69
2022-11-20T11:33:10.535Z,99417.94
2022-11-20T11:35:51.284Z,99422.72
2022-11-20T11:38:27.333Z,99426.66
2022-11-20T11:40:58.292Z,99431.91
2022-11-20T11:43:42.932Z,99419.72
2022-11-20T11:46:29.953Z,99422.72
2022-11-20T11:49:02.514Z,99413.28
2022-11-20T11:51:42.337Z,99417.44
2022-11-20T11:54:21.660Z,99411.81
2022-11-20T11:56:53.444Z,99412.19
2022-11-20T11:59:31.182Z,99419.00
2022-11-20T12:02:07.944Z,99387.50
2022-11-20T12:04:48.589Z,99380.56
2022-11-20T12:07:46.420Z,99377.00
2022-11-20T12:10:24.004Z,99392.03
2022-11-20T12:12:59.768Z,99395.63
2022-11-20T12:15:34.139Z,99386.91
2022-11-20T12:18:04.801Z,99383.66
2022-11-20T12:20:45.927Z,99382.22
2022-11-20T12:23:30.905Z,99388.06
2022-11-20T12:26:05.142Z,99395.25
2022-11-20T12:28:52.916Z,99392.75
2022-11-20T12:31:41.659Z,99395.25
2022-11-20T12:34:41.969Z,99397.66
2022-11-20T12:37:24.183Z,99401.44
2022-11-20T12:40:04.268Z,99406.09
2022-11-20T12:43:12.159Z,99403.72
2022-11-20T12:46:04.820Z,99413.66
2022-11-20T12:48:59.761Z,99403.63
2022-11-20T12:51:56.200Z,99414.16
2022-11-20T12:54:50.090Z,99416.47
2022-11-20T12:57:28.607Z,99419.47
2022-11-20T13:00:15.738Z,99409.56
2022-11-20T13:03:09.076Z,99417.25
2022-11-20T13:05:51.036Z,99426.09
2022-11-20T13:08:26.677Z,99410.78
2022-11-20T13:11:08.132Z,99401.72
2022-11-20T13:14:08.436Z,99399.56
2022-11-20T13:16:45.484Z,99385.97
2022-11-20T13:19:18.014Z,99388.13
2022-11-20T13:21:50.580Z,99383.69
2022-11-20T13:24:31.296Z,99385.13
2022-11-20T13:27:09.788Z,99381.19
2022-11-20T13:29:46.519Z,99386.94
2022-11-20T13:32:20.832Z,99383.81
2022-11-20T13:34:57.413Z,99387.19
2022-11-20T13:37:31.675Z,99386.22
2022-11-20T13:40:26.348Z,99389.06
2022-11-20T13:43:05.058Z,99391.69
2022-11-20T13:45:37.776Z,99389.41
2022-11-20T13:48:23.030Z,99395.50
2022-11-20T13:51:03.749Z,99395.75
2022-11-20T13:53:52.286Z,99399.94
2022-11-20T13:56:31.330Z,99397.88
2022-11-20T13:59:15.591Z,99385.34
2022-11-20T14:01:50.011Z,99385.25
2022-11-20T14:04:29.530Z,99384.53
2022-11-20T14:07:00.387Z,99376.28
2022-11-20T14:09:32.995Z,99373.19
2022-11-20T14:12:03.570Z,99374.84
2022-11-20T14:14:37.598Z,99364.09
2022-11-20T14:17:23.083Z,99372.31
2022-11-20T14:19:55.404Z,99377.84
2022-11-20T14:22:28.610Z,99374.22
2022-11-20T14:25:08.413Z,99374.56
2022-11-20T14:27:41.501Z,99368.59
2022-11-20T14:30:18.257Z,99377.13
2022-11-20T14:32:52.440Z,99373.28
2022-11-20T14:35:25.860Z,99381.66
2022-11-20T14:37:59.584Z,99378.44
2022-11-20T14:40:33.238Z,99383.03
2022-11-20T14:43:06.782Z,99379.28
2022-11-20T14:45:37.932Z,99381.06
2022-11-20T14:48:14.678Z,99389.25
2022-11-20T14:50:45.016Z,99385.59
2022-11-20T14:53:25.920Z,99381.81
2022-11-20T14:56:01.439Z,99385.66
2022-11-20T14:58:34.451Z,99391.56
2022-11-20T15:01:07.330Z,99388.59
2022-11-20T15:03:42.080Z,99390.06
2022-11-20T15:06:16.202Z,99391.97
2022-11-20T15:08:54.692Z,99408.72
2022-11-20T15:11:32.031Z,99400.56
2022-11-20T15:14:06.737Z,99390.13
2022-11-20T15:16:37.300Z,99396.00
2022-11-20T15:19:20.868Z,99412.34
2022-11-20T15:21:51.225Z,99415.19
2022-11-20T15:24:22.363Z,99419.19
2022-11-20T15:26:52.964Z,99429.88
2022-11-20T15:29:25.092Z,99430.25
2022-11-20T15:31:56.014Z,99431.41
2022-11-20T15:34:31.234Z,99435.69
2022-11-20T15:37:01.872Z,99427.41
2022-11-20T15:39:32.074Z,99436.41
2022-11-20T15:42:02.260Z,99439.38
2022-11-20T15:44:32.443Z,99435.28
2022-11-20T15:47:02.830Z,99441.47
2022-11-20T15:49:35.881Z,99437.16
2022-11-20T15:52:05.981Z,99439.25
2022-11-20T15:54:36.192Z,99434.22
2022-11-20T15:57:07.003Z,99425.00
2022-11-20T15:59:40.839Z,99430.03
2022-11-20T16:02:18.674Z,99429.63
2022-11-20T16:04:51.904Z,99431.72
2022-11-20T16:07:22.048Z,99427.00
2022-11-20T16:09:52.112Z,99421.56
2022-11-20T16:12:34.437Z,99414.50
2022-11-20T16:15:16.861Z,99419.25
2022-11-20T16:17:47.165Z,99424.66
2022-11-20T16:20:19.791Z,99422.44
2022-11-20T16:22:49.914Z,99433.31
2022-11-20T16:25:22.993Z,99430.88
2022-11-20T16:27:53.092Z,99440.94
2022-11-20T16:30:23.492Z,99432.63
2022-11-20T16:32:53.618Z,99429.38
2022-11-20T16:35:26.448Z,99436.56
2022-11-20T16:37:56.504Z,99434.34
2022-11-20T16:40:27.125Z,99425.38
2022-11-20T16:43:00.269Z,99435.09
2022-11-20T16:45:33.869Z,99433.41
2022-11-20T16:48:04.157Z,99430.38
2022-11-20T16:50:36.873Z,99423.78
2022-11-20T16:53:06.891Z,99413.81
2022-11-20T16:55:36.949Z,99423.59
2022-11-20T16:58:07.071Z,99415.78
2022-11-20T17:00:39.581Z,99409.94
2022-11-20T17:03:10.222Z,99407.19
2022-11-20T17:05:42.987Z,99401.44
2022-11-20T17:08:13.052Z,99403.13
2022-11-20T17:10:43.215Z,99400.16
2022-11-20T17:13:13.310Z,99395.13
2022-11-20T17:15:43.376Z,99403.16
2022-11-20T17:18:13.979Z,99401.66
2022-11-20T17:20:54.870Z,99383.88
2022-11-20T17:23:24.925Z,99377.56
2022-11-20T17:25:55.011Z,99373.56
2022-11-20T17:28:25.187Z,99373.03
2022-11-20T17:30:55.268Z,99366.66
2022-11-20T17:33:25.415Z,99362.38
2022-11-20T17:35:58.155Z,99369.13
2022-11-20T17:38:28.452Z,99371.25
2022-11-20T17:41:05.475Z,99383.00
2022-11-20T17:43:37.220Z,99351.91
2022-11-20T17:46:08.709Z,99381.06
2022-11-20T17:48:42.497Z,99384.78
2022-11-20T17:51:17.388Z,99388.78
2022-11-20T17:53:49.481Z,99395.09
2022-11-20T17:56:32.186Z,99393.72
2022-11-20T17:59:03.119Z,99387.00
2022-11-20T18:01:33.262Z,99381.97
2022-11-20T18:04:03.379Z,99387.00
2022-11-20T18:06:36.264Z,99393.63
2022-11-20T18:09:12.348Z,99406.84
2022-11-20T18:11:45.575Z,99415.69
2022-11-20T18:14:32.918Z,99437.47
2022-11-20T18:17:05.223Z,99431.09
2022-11-20T18:19:41.232Z,99448.25
2022-11-20T18:22:23.024Z,99457.44
2022-11-20T18:24:53.163Z,99454.19
2022-11-20T18:27:24.505Z,99459.75
2022-11-20T18:29:54.584Z,99454.88
2022-11-20T18:32:25.530Z,99453.63
2022-11-20T18:34:55.856Z,99437.28
2022-11-20T18:37:28.637Z,99437.78
2022-11-20T18:39:58.740Z,99441.50
2022-11-20T18:42:41.363Z,99440.75
2022-11-20T18:45:12.299Z,99428.22
2022-11-20T18:47:42.498Z,99428.88
2022-11-20T18:50:12.973Z,99435.19
2022-11-20T18:52:48.176Z,99443.09
2022-11-20T18:55:18.190Z,99443.16
2022-11-20T18:57:48.645Z,99443.44
2022-11-20T19:00:19.367Z,99443.03
2022-11-20T19:02:49.742Z,99417.34
2022-11-20T19:05:20.259Z,99408.84
2022-11-20T19:07:53.178Z,99421.03
2022-11-20T19:10:24.499Z,99419.34
2022-11-20T19:12:54.543Z,99423.56
2022-11-20T19:15:24.555Z,99418.25
2022-11-20T19:17:57.040Z,99403.47
2022-11-20T19:20:27.586Z,99403.22
2022-11-20T19:23:00.360Z,99404.91
2022-11-20T19:25:35.160Z,99397.16
2022-11-20T19:28:08.172Z,99404.22
2022-11-20T19:30:38.771Z,99401.72
2022-11-20T19:33:08.918Z,99409.59
2022-11-20T19:35:39.423Z,99412.13
2022-11-20T19:38:12.269Z,99402.28
2022-11-20T19:40:42.412Z,99417.91
2022-11-20T19:43:12.535Z,99410.03
2022-11-20T19:45:42.890Z,99410.19
2022-11-20T19:48:13.327Z,99407.69
2022-11-20T19:50:43.363Z,99411.28
2022-11-20T19:53:16.248Z,99413.97
2022-11-20T19:55:46.320Z,99415.81
2022-11-20T19:58:16.489Z,99415.16
2022-11-20T20:00:46.717Z,99416.25
2022-11-20T20:03:16.949Z,99410.44
2022-11-20T20:05:47.460Z,99410.66
2022-11-20T20:08:23.241Z,99405.84
2022-11-20T20:10:59.881Z,99410.31
2022-11-20T20:13:30.151Z,99404.44
2022-11-20T20:16:00.329Z,99390.41
2022-11-20T20:18:30.471Z,99394.94
2022-11-20T20:21:06.189Z,99379.94
2022-11-20T20:23:38.965Z,99401.56
2022-11-20T20:26:11.502Z,99401.75
2022-11-20T20:28:42.853Z,99390.75
2022-11-20T20:31:15.000Z,99379.25
2022-11-20T20:33:45.939Z,99361.09
2022-11-20T20:36:17.543Z,99369.34
2022-11-20T20:38:50.940Z,99369.34
2022-11-20T20:41:22.448Z,99362.28
2022-11-20T20:44:05.044Z,99370.75
2022-11-20T20:46:35.396Z,99376.88
2022-11-20T20:49:07.981Z,99377.56
2022-11-20T20:51:38.544Z,99363.59
2022-11-20T20:54:11.202Z,99370.31
2022-11-20T20:56:41.251Z,99375.59
2022-11-20T20:59:12.084Z,99373.66
2022-11-20T21:01:42.329Z,99371.31
2022-11-20T21:04:12.486Z,99374.84
2022-11-20T21:06:42.567Z,99374.00
2022-11-20T21:09:15.298Z,99369.00
2022-11-20T21:11:47.457Z,99376.13
2022-11-20T21:14:17.570Z,99375.53
2022-11-20T21:16:47.617Z,99378.16
2022-11-20T21:19:19.135Z,99381.75
2022-11-20T21:22:03.304Z,99399.47
2022-11-20T21:24:37.778Z,99405.97
2022-11-20T21:27:09.000Z,99409.22
2022-11-20T21:29:39.175Z,99411.28
2022-11-20T21:32:09.233Z,99415.09
2022-11-20T21:34:39.324Z,99421.28
2022-11-20T21:37:09.467Z,99421.63
2022-11-20T21:39:50.896Z,99418.34
2022-11-20T21:42:21.015Z,99415.72
2022-11-20T21:44:51.071Z,99423.78
2022-11-20T21:47:21.290Z,99436.78
2022-11-20T21:49:51.356Z,99442.81
2022-11-20T21:52:21.447Z,99435.47
2022-11-20T21:54:54.099Z,99434.47
2022-11-20T21:57:24.140Z,99443.88
2022-11-20T21:59:54.211Z,99444.78
2022-11-20T22:02:24.455Z,99450.13
2022-11-20T22:05:04.469Z,99445.03
2022-11-20T22:07:34.627Z,99443.41
2022-11-20T22:10:08.028Z,99437.44
2022-11-20T22:12:38.189Z,99430.56
2022-11-20T22:15:07.028Z,99420.47
2022-11-20T22:17:49.445Z,99406.91
2022-11-20T22:20:19.628Z,99402.63
2022-11-20T22:22:49.650Z,99370.06
2022-11-20T22:25:22.394Z,99404.69
2022-11-20T22:27:52.988Z,99401.56
2022-11-20T22:30:23.312Z,99391.41
2022-11-20T22:32:56.555Z,99394.44
2022-11-20T22:35:26.492Z,99386.72
2022-11-20T22:37:56.581Z,99387.88
2022-11-20T22:40:29.252Z,99382.66
2022-11-20T22:42:59.378Z,99380.38
2022-11-20T22:45:29.466Z,99382.28
2022-11-20T22:48:02.422Z,99385.16
2022-11-20T22:50:32.509Z,99365.59
2022-11-20T22:53:02.687Z,99375.97
2022-11-20T22:55:36.009Z,99377.75
2022-11-20T22:58:06.072Z,99383.22
2022-11-20T23:00:36.326Z,99371.31
2022-11-20T23:03:06.373Z,99364.59
2022-11-20T23:05:36.568Z,99358.19
2022-11-20T23:08:06.963Z,99359.03
2022-11-20T23:10:39.653Z,99353.13
2022-11-20T23:13:09.911Z,99359.25
2022-11-20T23:15:39.998Z,99346.34
2022-11-20T23:18:10.293Z,99350.69
2022-11-20T23:20:40.348Z,99349.84
2022-11-20T23:23:10.538Z,99335.28
2022-11-20T23:25:43.493Z,99342.97
2022-11-20T23:28:13.811Z,99338.81
2022-11-20T23:30:43.822Z,99339.03
2022-11-20T23:33:13.932Z,99333.00
2022-11-20T23:35:44.025Z,99341.72
2022-11-20T23:38:14.113Z,99334.53
2022-11-20T23:40:52.103Z,99315.28
2022-11-20T23:43:24.319Z,99327.03
2022-11-20T23:45:56.077Z,99315.97
2022-11-20T23:48:28.867Z,99320.09
2022-11-20T23:50:59.274Z,99312.22
2022-11-20T23:53:30.592Z,99308.03
2022-11-20T23:56:05.262Z,99321.28
2022-11-20T23:58:38.556Z,99322.06
